Time;durP1;ratioP1;P1;durP2;ratioP2;P2;SDS_P1;SDS_P2;PMS_P1;PMS_P2;Temp;Humidity;BMP_temperature;BMP_pressure;BME280_temperature;BME280_humidity;BME280_pressure;Samples;Min_cycle;Max_cycle;Signal;HPM_P1;HPM_P2
2022/06/26 00:02:17;;;;;;;;;;;;;;;18.81;69.46;100688.92;1774437;80;20210;-54
2022/06/26 00:05:21;;;;;;;;;;;;;;;18.80;69.46;100681.69;1774534;80;20616;-54
2022/06/26 00:08:26;;;;;;;;;;;;;;;18.80;69.47;100684.46;1764965;80;20194;-54
2022/06/26 00:11:30;;;;;;;;;;;;;;;18.79;69.45;100676.36;1773658;80;20538;-54
2022/06/26 00:14:36;;;;;;;;;;;;;;;18.77;69.43;100682.66;1774750;80;20518;-54
2022/06/26 00:17:41;;;;;;;;;;;;;;;18.75;69.50;100684.27;1774444;80;20510;-54
2022/06/26 00:20:46;;;;;;;;;;;;;;;18.76;69.55;100685.95;1762331;80;20218;-54
2022/06/26 00:23:51;;;;;;;;;;;;;;;18.78;69.58;100687.98;1769114;80;20180;-54
2022/06/26 00:26:56;;;;;;;;;;;;;;;18.74;69.51;100683.11;1775070;80;20273;-54
2022/06/26 00:29:59;;;;;;;;;;;;;;;18.72;69.54;100682.47;1794249;79;20189;-54
2022/06/26 00:33:03;;;;;;;;;;;;;;;18.69;69.52;100679.61;1792777;80;20252;-53
2022/06/26 00:36:08;;;;;;;;;;;;;;;18.62;69.47;100681.55;1766612;80;20233;-54
2022/06/26 00:39:14;;;;;;;;;;;;;;;18.57;69.50;100678.59;1793326;80;20182;-54
2022/06/26 00:42:17;;;;;;;;;;;;;;;18.52;69.51;100674.79;1786576;80;20518;-54
2022/06/26 00:45:21;;;;;;;;;;;;;;;18.47;69.51;100674.03;1773991;80;20213;-54
2022/06/26 00:48:26;;;;;;;;;;;;;;;18.45;69.64;100670.66;1775194;80;20185;-54
2022/06/26 00:51:29;;;;;;;;;;;;;;;18.45;69.69;100672.05;1774713;80;20214;-54
2022/06/26 00:54:36;;;;;;;;;;;;;;;18.41;69.68;100669.38;1772692;80;20205;-53
2022/06/26 00:57:44;;;;;;;;;;;;;;;18.41;69.75;100662.45;1729181;82;20613;-54
2022/06/26 01:00:49;;;;;;;;;;;;;;;18.38;69.74;100668.43;1741261;82;20225;-53
2022/06/26 01:03:53;;;;;;;;;;;;;;;18.37;69.81;100682.48;1741346;82;20210;-53
2022/06/26 01:06:59;;;;;;;;;;;;;;;18.33;69.85;100681.23;1741236;82;20542;-54
2022/06/26 01:10:02;;;;;;;;;;;;;;;18.33;69.97;100680.67;1741241;82;20518;-54
2022/06/26 01:13:08;;;;;;;;;;;;;;;18.32;70.01;100697.00;1741271;82;20258;-54
2022/06/26 01:16:12;;;;;;;;;;;;;;;18.31;69.99;100699.47;1741239;81;20550;-54
2022/06/26 01:19:17;;;;;;;;;;;;;;;18.29;69.97;100711.83;1723144;82;20210;-53
2022/06/26 01:22:20;;;;;;;;;;;;;;;18.25;69.99;100714.73;1741281;82;20210;-53
2022/06/26 01:25:24;;;;;;;;;;;;;;;18.26;70.09;100713.12;1741237;82;20186;-53
2022/06/26 01:28:28;;;;;;;;;;;;;;;18.26;70.10;100707.58;1741384;82;20194;-54
2022/06/26 01:31:36;;;;;;;;;;;;;;;18.25;70.10;100705.03;1741309;82;20206;-53
2022/06/26 01:34:40;;;;;;;;;;;;;;;18.25;70.15;100707.24;1741390;82;20198;-53
2022/06/26 01:37:45;;;;;;;;;;;;;;;18.26;70.18;100706.72;1741338;82;20226;-53
2022/06/26 01:40:49;;;;;;;;;;;;;;;18.27;70.22;100707.89;1741341;82;20228;-54
2022/06/26 01:43:54;;;;;;;;;;;;;;;18.31;70.33;100709.17;1741328;82;20218;-54
2022/06/26 01:46:57;;;;;;;;;;;;;;;18.33;70.30;100709.78;1741262;82;20226;-54
2022/06/26 01:50:02;;;;;;;;;;;;;;;18.34;70.24;100714.28;1741335;82;20182;-54
2022/06/26 01:53:08;;;;;;;;;;;;;;;18.35;70.29;100709.03;1741360;82;20183;-54
2022/06/26 01:56:14;;;;;;;;;;;;;;;18.36;70.29;100712.67;1738691;80;20453;-54
2022/06/26 01:59:18;;;;;;;;;;;;;;;18.36;70.36;100719.04;1723287;82;20187;-54
2022/06/26 02:02:22;;;;;;;;;;;;;;;18.36;70.28;100709.90;1742021;81;20575;-54
2022/06/26 02:05:26;;;;;;;;;;;;;;;18.34;70.24;100712.89;1741244;82;20183;-54
2022/06/26 02:08:30;;;;;;;;;;;;;;;18.32;70.23;100717.79;1741239;82;20210;-54
2022/06/26 02:14:58;;;;;;;;;;;;;;;18.26;70.26;100722.83;1741206;82;20202;-54
2022/06/26 02:18:02;;;;;;;;;;;;;;;18.20;70.30;100725.08;1741234;82;20242;-55
2022/06/26 02:21:07;;;;;;;;;;;;;;;18.19;70.38;100725.30;1741360;82;20234;-53
2022/06/26 02:24:12;;;;;;;;;;;;;;;18.15;70.42;100729.03;1741230;82;20550;-53
2022/06/26 02:27:17;;;;;;;;;;;;;;;18.16;70.53;100725.70;1741422;82;20186;-54
2022/06/26 02:30:18;;;;;;;;;;;;;;;18.15;70.56;100726.79;1741349;82;20202;-53
2022/06/26 02:33:23;;;;;;;;;;;;;;;18.16;70.63;100724.32;1741285;82;20201;-54
2022/06/26 02:36:29;;;;;;;;;;;;;;;18.16;70.65;100733.50;1741288;82;20202;-53
2022/06/26 02:39:33;;;;;;;;;;;;;;;18.19;70.75;100726.13;1741291;82;20245;-53
2022/06/26 02:42:38;;;;;;;;;;;;;;;18.25;70.77;100735.52;1741386;82;20178;-55
2022/06/26 02:45:42;;;;;;;;;;;;;;;18.28;70.73;100735.08;1741304;82;20253;-54
2022/06/26 02:48:48;;;;;;;;;;;;;;;18.33;70.78;100738.88;1741332;82;20206;-54
2022/06/26 02:51:52;;;;;;;;;;;;;;;18.36;70.78;100730.13;1741209;82;20218;-54
2022/06/26 02:54:57;;;;;;;;;;;;;;;18.37;70.75;100727.70;1741269;82;20542;-55
2022/06/26 02:58:03;;;;;;;;;;;;;;;18.40;70.85;100725.91;1743656;78;20203;-54
2022/06/26 03:01:12;;;;;;;;;;;;;;;18.47;70.92;100735.59;1741236;82;20200;-54
2022/06/26 03:04:11;;;;;;;;;;;;;;;18.47;70.88;100736.42;1741408;82;20192;-54
2022/06/26 03:07:15;;;;;;;;;;;;;;;18.49;70.94;100748.16;1741326;82;20191;-53
2022/06/26 03:10:21;;;;;;;;;;;;;;;18.54;71.00;100733.10;1741359;82;20256;-53
2022/06/26 03:13:25;;;;;;;;;;;;;;;18.58;71.05;100726.06;1723305;82;20204;-54
2022/06/26 03:16:30;;;;;;;;;;;;;;;18.61;71.05;100729.78;1741322;82;20235;-53
2022/06/26 03:19:36;;;;;;;;;;;;;;;18.63;71.03;100732.34;1741318;82;20259;-54
2022/06/26 03:22:40;;;;;;;;;;;;;;;18.64;71.04;100733.50;1741362;82;20540;-54
2022/06/26 03:25:44;;;;;;;;;;;;;;;18.70;71.15;100736.77;1741261;82;20512;-53
2022/06/26 03:28:50;;;;;;;;;;;;;;;18.81;71.23;100735.22;1741283;82;20204;-54
2022/06/26 03:31:55;;;;;;;;;;;;;;;18.90;71.23;100741.69;1740835;82;20184;-53
2022/06/26 03:35:02;;;;;;;;;;;;;;;19.00;71.18;100743.98;1667864;84;20261;-54
2022/06/26 03:38:10;;;;;;;;;;;;;;;19.07;71.17;100744.81;1690016;84;20560;-54
2022/06/26 03:41:15;;;;;;;;;;;;;;;19.12;71.12;100745.00;1691228;84;20189;-53
2022/06/26 03:44:19;;;;;;;;;;;;;;;19.17;71.18;100739.64;1680367;84;20197;-54
2022/06/26 03:47:24;;;;;;;;;;;;;;;19.20;71.19;100748.34;1690624;84;20205;-54
2022/06/26 03:50:31;;;;;;;;;;;;;;;19.22;71.17;100751.77;1708611;83;20196;-53
2022/06/26 03:53:36;;;;;;;;;;;;;;;19.22;71.13;100750.38;1741088;82;20255;-54
2022/06/26 03:56:41;;;;;;;;;;;;;;;19.23;71.23;100750.67;1740654;82;20616;-53
2022/06/26 03:59:48;;;;;;;;;;;;;;;19.30;71.33;100756.22;1777959;79;20191;-55
2022/06/26 04:03:11;;;;;;;;;;;;;;;19.37;71.37;100750.63;1789253;79;20178;-54
2022/06/26 04:06:14;;;;;;;;;;;;;;;19.42;71.31;100751.67;1789824;80;20577;-54
2022/06/26 04:09:21;;;;;;;;;;;;;;;19.44;71.32;100751.45;1789285;79;20557;-54
2022/06/26 04:12:19;;;;;;;;;;;;;;;19.46;71.27;100742.33;1789275;79;20201;-54
2022/06/26 04:15:15;;;;;;;;;;;;;;;19.46;71.32;100745.97;1789171;80;20269;-54
2022/06/26 04:18:01;;;;;;;;;;;;;;;19.50;71.32;100736.66;1789303;80;20557;-54
2022/06/26 04:20:55;;;;;;;;;;;;;;;19.55;71.41;100739.62;1762962;80;20273;-54
2022/06/26 04:24:01;;;;;;;;;;;;;;;19.61;71.46;100742.88;1754972;82;20244;-53
2022/06/26 04:27:07;;;;;;;;;;;;;;;19.69;71.45;100752.32;1769864;80;20289;-54
2022/06/26 04:30:14;;;;;;;;;;;;;;;19.79;71.45;100758.23;1789877;80;20203;-54
2022/06/26 04:33:18;;;;;;;;;;;;;;;19.91;71.48;100755.87;1789028;80;20223;-54
2022/06/26 04:36:25;;;;;;;;;;;;;;;20.05;71.47;100759.37;1802918;79;20215;-54
2022/06/26 04:39:30;;;;;;;;;;;;;;;20.15;71.40;100757.79;1788549;80;20460;-54
2022/06/26 04:42:35;;;;;;;;;;;;;;;20.23;71.37;100760.84;1789261;80;20263;-55
2022/06/26 04:45:39;;;;;;;;;;;;;;;20.27;71.31;100756.51;1789037;80;20658;-54
2022/06/26 04:48:48;;;;;;;;;;;;;;;20.36;71.37;100754.59;1802448;79;20202;-55
2022/06/26 04:51:51;;;;;;;;;;;;;;;20.48;71.41;100758.33;1789167;80;20199;-54
2022/06/26 04:55:04;;;;;;;;;;;;;;;20.59;71.37;100750.59;1802424;79;20559;-54
2022/06/26 04:58:11;;;;;;;;;;;;;;;20.75;71.40;100751.91;1789935;80;20215;-54
2022/06/26 05:01:16;;;;;;;;;;;;;;;20.93;71.37;100748.25;1760803;81;20200;-54
2022/06/26 05:04:40;;;;;;;;;;;;;;;21.11;71.33;100749.09;1754409;81;20200;-54
2022/06/26 05:07:51;;;;;;;;;;;;;;;21.29;71.26;100749.59;1753125;82;20268;-54
2022/06/26 05:10:57;;;;;;;;;;;;;;;21.51;71.28;100743.25;1736765;82;20264;-54
2022/06/26 05:14:03;;;;;;;;;;;;;;;21.68;71.17;100753.15;1753319;82;20597;-55
2022/06/26 05:17:11;;;;;;;;;;;;;;;21.81;71.14;100755.76;1752659;82;20204;-54
2022/06/26 05:20:18;;;;;;;;;;;;;;;21.85;71.00;100757.83;1752864;82;20217;-53
2022/06/26 05:23:24;;;;;;;;;;;;;;;21.89;71.05;100750.70;1752899;82;20271;-53
2022/06/26 05:26:31;;;;;;;;;;;;;;;21.95;71.03;100746.94;1753552;82;20240;-53
2022/06/26 05:29:31;;;;;;;;;;;;;;;21.99;70.95;100750.92;1753314;82;20217;-53
2022/06/26 05:32:25;;;;;;;;;;;;;;;22.04;71.03;100755.81;1760039;81;20553;-54
2022/06/26 05:35:12;;;;;;;;;;;;;;;22.13;71.18;100754.34;1753621;82;20276;-53
2022/06/26 05:38:05;;;;;;;;;;;;;;;22.22;71.14;100751.48;1753863;82;20224;-54
2022/06/26 05:41:10;;;;;;;;;;;;;;;22.31;71.19;100761.17;1728988;82;20215;-54
2022/06/26 05:44:18;;;;;;;;;;;;;;;22.48;71.35;100758.52;1729020;83;20322;-54
2022/06/26 05:47:25;;;;;;;;;;;;;;;22.64;71.36;100751.69;1729108;82;20527;-54
2022/06/26 05:50:48;;;;;;;;;;;;;;;22.73;71.24;100745.16;1727585;82;20191;-54
2022/06/26 05:54:04;;;;;;;;;;;;;;;22.73;71.19;100746.55;1729064;82;20194;-54
2022/06/26 05:57:26;;;;;;;;;;;;;;;22.79;71.30;100746.95;1729338;82;20633;-54
2022/06/26 06:00:37;;;;;;;;;;;;;;;22.89;71.44;100749.97;1732660;81;20210;-55
2022/06/26 06:03:45;;;;;;;;;;;;;;;22.93;71.45;100753.98;1748341;80;20198;-54
2022/06/26 06:06:50;;;;;;;;;;;;;;;22.95;71.41;100753.16;1749926;80;20205;-54
2022/06/26 06:09:59;;;;;;;;;;;;;;;22.94;71.33;100752.88;1743563;82;20653;-54
2022/06/26 06:13:05;;;;;;;;;;;;;;;22.93;71.37;100752.59;1749888;80;20199;-54
2022/06/26 06:16:13;;;;;;;;;;;;;;;23.01;71.43;100757.75;1777821;81;20207;-55
2022/06/26 06:19:19;;;;;;;;;;;;;;;23.10;71.46;100753.49;1777655;81;20583;-54
2022/06/26 06:22:25;;;;;;;;;;;;;;;23.18;71.41;100751.13;1777450;81;20203;-54
2022/06/26 06:25:30;;;;;;;;;;;;;;;23.29;71.48;100757.82;1777215;81;20199;-54
2022/06/26 06:28:36;;;;;;;;;;;;;;;23.40;71.42;100759.72;1777462;81;20547;-54
2022/06/26 06:31:42;;;;;;;;;;;;;;;23.49;71.39;100759.59;1777446;81;20603;-54
2022/06/26 06:34:47;;;;;;;;;;;;;;;23.63;71.47;100760.97;1777745;81;20607;-54
2022/06/26 06:37:55;;;;;;;;;;;;;;;23.73;71.35;100759.77;1777675;81;20247;-55
2022/06/26 06:41:02;;;;;;;;;;;;;;;23.74;71.14;100755.86;1777983;81;20543;-55
2022/06/26 06:44:18;;;;;;;;;;;;;;;23.76;71.13;100760.66;1759388;81;20251;-54
2022/06/26 06:47:26;;;;;;;;;;;;;;;23.82;71.12;100763.83;1701082;83;20668;-54
2022/06/26 06:50:49;;;;;;;;;;;;;;;23.83;71.05;100766.09;1662370;86;20193;-54
2022/06/26 06:53:54;;;;;;;;;;;;;;;23.86;71.15;100766.44;1665560;86;20583;-54
2022/06/26 06:56:59;;;;;;;;;;;;;;;23.92;71.21;100767.36;1665381;86;20816;-55
2022/06/26 07:00:06;;;;;;;;;;;;;;;23.95;71.19;100769.65;1664703;86;20228;-55
2022/06/26 07:03:11;;;;;;;;;;;;;;;24.02;71.19;100761.44;1713417;82;20223;-54
2022/06/26 07:06:18;;;;;;;;;;;;;;;24.21;71.29;100766.21;1704750;83;20306;-54
2022/06/26 07:09:23;;;;;;;;;;;;;;;24.45;71.30;100769.94;1719869;83;20212;-54
2022/06/26 07:12:30;;;;;;;;;;;;;;;24.61;71.12;100771.04;1720402;83;20216;-54
2022/06/26 07:15:36;;;;;;;;;;;;;;;24.77;70.98;100775.21;1720205;83;20208;-54
2022/06/26 07:18:40;;;;;;;;;;;;;;;24.87;70.77;100768.36;1720227;83;20212;-54
2022/06/26 07:21:45;;;;;;;;;;;;;;;24.99;70.68;100762.05;1720570;83;20208;-54
2022/06/26 07:24:50;;;;;;;;;;;;;;;25.12;70.50;100767.81;1712867;83;20211;-54
2022/06/26 07:28:00;;;;;;;;;;;;;;;25.26;70.28;100766.30;1716436;83;20216;-54
2022/06/26 07:31:06;;;;;;;;;;;;;;;25.33;70.09;100767.50;1716480;83;20224;-54
2022/06/26 07:34:16;;;;;;;;;;;;;;;25.38;69.89;100764.25;1717173;83;20299;-55
2022/06/26 07:37:22;;;;;;;;;;;;;;;25.45;69.73;100762.64;1717199;83;20280;-54
2022/06/26 07:40:30;;;;;;;;;;;;;;;25.50;69.62;100763.53;1716803;83;20564;-54
2022/06/26 07:43:36;;;;;;;;;;;;;;;25.61;69.64;100768.13;1731509;83;20210;-54
2022/06/26 07:46:44;;;;;;;;;;;;;;;25.85;69.76;100765.28;1732060;83;20262;-54
2022/06/26 07:49:54;;;;;;;;;;;;;;;26.04;69.55;100753.13;1729954;81;20543;-54
2022/06/26 07:52:59;;;;;;;;;;;;;;;26.12;69.24;100754.04;1726327;83;20263;-54
2022/06/26 07:56:03;;;;;;;;;;;;;;;26.11;69.01;100754.61;1693208;84;20257;-54
2022/06/26 07:59:07;;;;;;;;;;;;;;;26.20;69.04;100756.34;1731891;82;20258;-54
2022/06/26 08:02:12;;;;;;;;;;;;;;;26.24;68.93;100760.33;1733023;81;20323;-54
2022/06/26 08:05:17;;;;;;;;;;;;;;;26.28;68.83;100759.52;1746596;82;20209;-53
2022/06/26 08:08:21;;;;;;;;;;;;;;;26.25;68.62;100756.39;1735771;82;20519;-54
2022/06/26 08:11:30;;;;;;;;;;;;;;;26.23;68.47;100758.61;1736821;82;20258;-54
2022/06/26 08:14:35;;;;;;;;;;;;;;;26.16;68.43;100756.03;1736377;82;20322;-54
2022/06/26 08:17:41;;;;;;;;;;;;;;;26.12;68.35;100768.07;1782504;80;20637;-54
2022/06/26 08:20:51;;;;;;;;;;;;;;;26.10;68.26;100759.09;1785320;80;20183;-54
2022/06/26 08:23:56;;;;;;;;;;;;;;;26.13;68.24;100759.96;1785385;80;20234;-54
2022/06/26 08:27:04;;;;;;;;;;;;;;;26.17;68.19;100760.55;1758264;80;20198;-55
2022/06/26 08:30:09;;;;;;;;;;;;;;;26.17;68.11;100759.15;1742941;82;20198;-54
2022/06/26 08:33:18;;;;;;;;;;;;;;;26.22;68.08;100760.59;1742785;82;20210;-54
2022/06/26 08:36:23;;;;;;;;;;;;;;;26.25;68.02;100768.48;1742800;82;20281;-54
2022/06/26 08:39:34;;;;;;;;;;;;;;;26.17;67.88;100759.70;1742127;82;20595;-53
2022/06/26 08:42:52;;;;;;;;;;;;;;;26.10;67.84;100758.52;1708570;84;20240;-54
2022/06/26 08:45:49;;;;;;;;;;;;;;;26.11;67.90;100763.03;1742813;81;20194;-54
2022/06/26 08:48:56;;;;;;;;;;;;;;;26.19;67.87;100765.89;1743151;82;20275;-54
2022/06/26 08:52:00;;;;;;;;;;;;;;;26.33;67.84;100762.91;1711505;82;20200;-55
2022/06/26 08:55:05;;;;;;;;;;;;;;;26.41;67.76;100756.24;1697238;84;20280;-55
2022/06/26 08:58:09;;;;;;;;;;;;;;;26.53;67.66;100756.59;1705502;84;20208;-53
2022/06/26 09:01:17;;;;;;;;;;;;;;;26.61;67.48;100751.87;1705705;84;20216;-53
2022/06/26 09:04:21;;;;;;;;;;;;;;;26.68;67.39;100751.94;1715485;82;20536;-54
2022/06/26 09:07:28;;;;;;;;;;;;;;;26.77;67.27;100752.25;1722400;83;20196;-53
2022/06/26 09:10:37;;;;;;;;;;;;;;;26.83;67.00;100754.81;1756257;82;20194;-54
2022/06/26 09:13:45;;;;;;;;;;;;;;;26.89;66.91;100762.17;1756668;82;20237;-54
2022/06/26 09:16:52;;;;;;;;;;;;;;;27.02;66.88;100766.45;1757040;82;20181;-54
2022/06/26 09:19:58;;;;;;;;;;;;;;;27.13;66.62;100761.16;1793701;79;20290;-53
2022/06/26 09:23:05;;;;;;;;;;;;;;;27.25;66.50;100761.20;1770301;80;20207;-55
2022/06/26 09:26:11;;;;;;;;;;;;;;;27.32;66.19;100759.57;1789332;80;20270;-54
2022/06/26 09:29:19;;;;;;;;;;;;;;;27.37;66.15;100761.81;1789316;80;20250;-54
2022/06/26 09:32:23;;;;;;;;;;;;;;;27.47;66.03;100759.04;1789551;80;20210;-53
2022/06/26 09:35:31;;;;;;;;;;;;;;;27.60;65.84;100762.73;1762938;80;20184;-54
2022/06/26 09:38:40;;;;;;;;;;;;;;;27.69;65.70;100760.20;1789823;80;20523;-54
2022/06/26 09:41:46;;;;;;;;;;;;;;;27.85;65.65;100759.95;1789981;80;20255;-55
2022/06/26 09:44:53;;;;;;;;;;;;;;;28.05;65.47;100760.53;1789419;78;20187;-53
2022/06/26 09:48:00;;;;;;;;;;;;;;;28.23;65.27;100758.57;1789872;80;20266;-54
2022/06/26 09:51:08;;;;;;;;;;;;;;;28.36;64.73;100757.14;1789866;80;20195;-54
2022/06/26 09:54:13;;;;;;;;;;;;;;;28.42;64.43;100765.31;1789888;80;20528;-54
2022/06/26 09:57:21;;;;;;;;;;;;;;;28.59;64.33;100758.00;1789920;80;20246;-54
2022/06/26 10:00:26;;;;;;;;;;;;;;;28.83;64.12;100756.22;1789953;80;20275;-55
2022/06/26 10:06:56;;;;;;;;;;;;;;;29.21;63.57;100756.39;1721216;83;20211;-55
2022/06/26 10:10:02;;;;;;;;;;;;;;;29.40;63.35;100755.16;1721287;83;20220;-54
2022/06/26 10:13:10;;;;;;;;;;;;;;;29.46;62.91;100754.02;1721223;83;20192;-54
2022/06/26 10:16:28;;;;;;;;;;;;;;;29.49;62.62;100754.84;1720608;83;20244;-54
2022/06/26 10:19:43;;;;;;;;;;;;;;;29.50;62.47;100748.05;1720700;83;20207;-55
2022/06/26 10:22:49;;;;;;;;;;;;;;;29.48;62.23;100751.72;1721220;83;20555;-54
2022/06/26 10:25:55;;;;;;;;;;;;;;;29.33;61.85;100751.83;1721215;83;20199;-54
2022/06/26 10:29:11;;;;;;;;;;;;;;;29.11;61.65;100755.02;1721443;83;20223;-55
2022/06/26 10:32:17;;;;;;;;;;;;;;;29.15;61.77;100751.06;1721313;83;20251;-54
2022/06/26 10:35:22;;;;;;;;;;;;;;;29.43;61.92;100748.92;1720886;83;20208;-55
2022/06/26 10:38:32;;;;;;;;;;;;;;;29.70;61.70;100747.94;1720642;83;20219;-54
2022/06/26 10:45:11;;;;;;;;;;;;;;;30.21;61.12;100735.70;1719547;83;20619;-55
2022/06/26 10:48:22;;;;;;;;;;;;;;;30.44;60.76;100738.59;1720223;83;20271;-54
2022/06/26 10:51:32;;;;;;;;;;;;;;;30.43;60.19;100737.45;1720780;83;20204;-54
2022/06/26 10:54:39;;;;;;;;;;;;;;;30.26;59.82;100737.91;1726693;81;20266;-55
2022/06/26 10:57:49;;;;;;;;;;;;;;;30.11;59.51;100735.77;1699665;84;20537;-55
2022/06/26 11:00:55;;;;;;;;;;;;;;;30.05;59.44;100739.78;1699207;84;20622;-56
2022/06/26 11:04:02;;;;;;;;;;;;;;;29.86;58.97;100743.05;1710565;82;20272;-54
2022/06/26 11:07:10;;;;;;;;;;;;;;;29.56;58.76;100731.36;1739692;82;20466;-54
2022/06/26 11:10:20;;;;;;;;;;;;;;;29.53;58.86;100740.41;1741633;82;20217;-54
2022/06/26 11:13:26;;;;;;;;;;;;;;;29.46;58.56;100736.23;1731196;82;20242;-54
2022/06/26 11:16:47;;;;;;;;;;;;;;;29.41;58.53;100741.34;1724515;82;20218;-54
2022/06/26 11:23:29;;;;;;;;;;;;;;;29.52;58.13;100730.27;1711527;82;20217;-55
2022/06/26 11:26:34;;;;;;;;;;;;;;;29.57;58.02;100733.06;1753718;80;20210;-54
2022/06/26 11:29:41;;;;;;;;;;;;;;;29.73;57.91;100734.64;1741984;82;20301;-55
2022/06/26 11:32:45;;;;;;;;;;;;;;;29.73;57.72;100735.23;1742489;82;20534;-54
2022/06/26 11:35:52;;;;;;;;;;;;;;;29.79;57.70;100729.27;1742989;82;20222;-54
2022/06/26 11:39:01;;;;;;;;;;;;;;;29.95;57.64;100730.83;1742751;82;20621;-55
2022/06/26 11:42:07;;;;;;;;;;;;;;;30.04;57.37;100733.84;1742681;82;20598;-54
2022/06/26 11:45:12;;;;;;;;;;;;;;;30.01;57.07;100735.85;1742478;82;20344;-55
2022/06/26 11:48:21;;;;;;;;;;;;;;;29.83;56.52;100741.64;1760451;80;20238;-55
2022/06/26 11:51:28;;;;;;;;;;;;;;;29.40;56.35;100735.41;1716443;83;20335;-55
2022/06/26 11:54:32;;;;;;;;;;;;;;;29.15;56.43;100734.13;1678461;85;20255;-54
2022/06/26 11:57:31;;;;;;;;;;;;;;;29.11;56.67;100736.69;1763898;80;20212;-56
2022/06/26 12:00:25;;;;;;;;;;;;;;;29.14;56.61;100744.56;1746890;80;20210;-54
2022/06/26 12:03:13;;;;;;;;;;;;;;;29.08;56.40;100742.91;1743978;82;20309;-54
2022/06/26 12:06:12;;;;;;;;;;;;;;;29.01;56.42;100743.77;1743544;81;20234;-53
2022/06/26 12:09:28;;;;;;;;;;;;;;;29.05;56.37;100745.45;1731573;80;20210;-54
2022/06/26 12:12:34;;;;;;;;;;;;;;;29.04;56.34;100736.70;1730265;81;20597;-54
2022/06/26 12:15:43;;;;;;;;;;;;;;;29.11;56.26;100740.09;1729907;82;20498;-53
2022/06/26 12:18:49;;;;;;;;;;;;;;;29.11;56.27;100740.91;1729999;82;20474;-54
2022/06/26 12:21:59;;;;;;;;;;;;;;;29.29;56.27;100735.19;1730604;82;20601;-54
2022/06/26 12:25:03;;;;;;;;;;;;;;;29.44;56.22;100740.76;1731192;82;20214;-54
2022/06/26 12:28:10;;;;;;;;;;;;;;;29.50;55.86;100739.59;1731467;82;20215;-54
2022/06/26 12:31:17;;;;;;;;;;;;;;;29.58;55.63;100737.56;1730975;83;20215;-54
2022/06/26 12:34:20;;;;;;;;;;;;;;;29.66;55.36;100734.16;1730803;83;20579;-54
2022/06/26 12:37:26;;;;;;;;;;;;;;;29.66;55.00;100730.47;1731663;82;20218;-54
2022/06/26 12:40:34;;;;;;;;;;;;;;;29.71;54.89;100736.09;1732199;81;20286;-54
2022/06/26 12:43:39;;;;;;;;;;;;;;;29.84;54.75;100729.23;1732884;82;20281;-54
2022/06/26 12:46:47;;;;;;;;;;;;;;;30.07;54.60;100727.60;1731461;82;20569;-55
2022/06/26 12:49:51;;;;;;;;;;;;;;;30.20;54.46;100723.54;1731769;82;20575;-55
2022/06/26 12:52:57;;;;;;;;;;;;;;;30.19;54.12;100728.90;1730294;81;20297;-54
2022/06/26 12:56:03;;;;;;;;;;;;;;;30.14;53.87;100727.56;1750500;80;20214;-54
2022/06/26 12:59:07;;;;;;;;;;;;;;;30.16;53.84;100732.91;1745577;82;20241;-56
2022/06/26 13:02:16;;;;;;;;;;;;;;;30.20;53.56;100730.60;1647500;85;20252;-56
2022/06/26 13:05:21;;;;;;;;;;;;;;;30.12;53.25;100732.66;1627527;87;20546;-56
2022/06/26 13:08:34;;;;;;;;;;;;;;;30.07;53.19;100732.69;1662989;83;20208;-55
2022/06/26 13:11:43;;;;;;;;;;;;;;;30.19;53.18;100719.01;1699391;83;20197;-57
2022/06/26 13:14:49;;;;;;;;;;;;;;;30.41;53.08;100725.63;1700020;83;20564;-56
2022/06/26 13:17:58;;;;;;;;;;;;;;;30.60;52.90;100728.78;1699587;83;20319;-56
2022/06/26 13:21:03;;;;;;;;;;;;;;;30.68;52.46;100712.33;1699704;83;20209;-57
2022/06/26 13:24:08;;;;;;;;;;;;;;;30.64;52.20;100728.47;1699783;83;20241;-56
2022/06/26 13:27:14;;;;;;;;;;;;;;;30.48;51.90;100732.61;1698753;83;20213;-56
2022/06/26 13:30:19;;;;;;;;;;;;;;;30.25;51.80;100729.18;1699302;83;20240;-56
2022/06/26 13:33:25;;;;;;;;;;;;;;;30.10;51.77;100732.09;1706690;83;20246;-57
2022/06/26 13:36:30;;;;;;;;;;;;;;;30.04;51.69;100733.29;1702422;84;20204;-56
2022/06/26 13:39:35;;;;;;;;;;;;;;;29.99;51.62;100730.50;1703360;83;20217;-57
2022/06/26 13:42:38;;;;;;;;;;;;;;;29.90;51.45;100731.42;1702380;82;20216;-57
2022/06/26 13:45:45;;;;;;;;;;;;;;;29.68;51.33;100736.68;1721301;81;20195;-56
2022/06/26 13:48:51;;;;;;;;;;;;;;;29.60;51.48;100737.27;1732330;81;20250;-58
2022/06/26 13:51:56;;;;;;;;;;;;;;;29.59;51.45;100737.83;1669739;84;20212;-58
2022/06/26 13:55:01;;;;;;;;;;;;;;;29.46;51.39;100734.82;1747986;80;20613;-56
2022/06/26 13:58:06;;;;;;;;;;;;;;;29.46;51.40;100732.85;1760714;81;20188;-57
2022/06/26 14:01:12;;;;;;;;;;;;;;;29.55;51.37;100734.47;1750060;81;20569;-56
2022/06/26 14:04:20;;;;;;;;;;;;;;;29.59;51.25;100724.30;1727154;80;20218;-57
2022/06/26 14:07:24;;;;;;;;;;;;;;;29.64;51.08;100724.23;1691855;84;20213;-57
2022/06/26 14:10:30;;;;;;;;;;;;;;;29.73;50.95;100727.59;1723410;83;20214;-56
2022/06/26 14:13:35;;;;;;;;;;;;;;;29.82;50.77;100727.27;1725295;83;20215;-56
2022/06/26 14:16:34;;;;;;;;;;;;;;;29.88;50.66;100723.81;1726978;83;20243;-57
2022/06/26 14:19:39;;;;;;;;;;;;;;;29.84;50.49;100726.41;1726278;83;20207;-56
2022/06/26 14:26:09;;;;;;;;;;;;;;;29.74;50.25;100734.94;1729367;82;20225;-55
2022/06/26 14:29:13;;;;;;;;;;;;;;;29.80;50.26;100737.14;1740423;82;20236;-57
2022/06/26 14:32:18;;;;;;;;;;;;;;;29.82;50.12;100738.55;1756971;82;20573;-54
2022/06/26 14:35:26;;;;;;;;;;;;;;;29.91;50.01;100738.19;1749830;80;20716;-54
2022/06/26 14:38:35;;;;;;;;;;;;;;;29.92;49.79;100729.98;1744634;82;20228;-54
2022/06/26 14:41:42;;;;;;;;;;;;;;;30.01;49.68;100725.97;1744778;82;20596;-54
2022/06/26 14:44:46;;;;;;;;;;;;;;;30.13;49.67;100729.23;1752685;80;20598;-54
2022/06/26 14:47:54;;;;;;;;;;;;;;;30.18;49.46;100724.95;1726646;82;20207;-54
2022/06/26 14:50:59;;;;;;;;;;;;;;;30.14;49.40;100719.64;1727317;83;20250;-54
2022/06/26 14:54:05;;;;;;;;;;;;;;;30.20;49.33;100723.54;1727358;83;20254;-54
2022/06/26 14:57:11;;;;;;;;;;;;;;;30.27;49.16;100718.99;1727101;83;20630;-54
2022/06/26 15:00:17;;;;;;;;;;;;;;;30.26;49.02;100720.97;1726859;83;20230;-54
2022/06/26 15:03:23;;;;;;;;;;;;;;;30.18;48.95;100717.34;1727166;83;20348;-55
2022/06/26 15:06:30;;;;;;;;;;;;;;;30.31;49.00;100710.18;1727189;83;20611;-55
2022/06/26 15:09:35;;;;;;;;;;;;;;;30.70;48.54;100716.52;1725272;83;20190;-54
2022/06/26 15:12:43;;;;;;;;;;;;;;;30.87;48.04;100708.45;1726154;82;20196;-54
2022/06/26 15:15:46;;;;;;;;;;;;;;;30.82;47.92;100710.48;1736243;82;20212;-55
2022/06/26 15:18:52;;;;;;;;;;;;;;;30.70;47.83;100710.05;1754258;82;20240;-55
2022/06/26 15:21:57;;;;;;;;;;;;;;;30.57;47.83;100715.84;1754177;82;20185;-55
2022/06/26 15:25:04;;;;;;;;;;;;;;;30.33;47.74;100714.41;1754110;81;20310;-54
2022/06/26 15:28:12;;;;;;;;;;;;;;;30.12;47.79;100719.94;1753052;82;20589;-55
2022/06/26 15:31:18;;;;;;;;;;;;;;;29.96;47.87;100718.39;1752720;82;20229;-55
2022/06/26 15:34:24;;;;;;;;;;;;;;;29.78;47.86;100726.14;1753043;82;20844;-54
2022/06/26 15:37:30;;;;;;;;;;;;;;;29.50;47.78;100727.44;1752782;82;20568;-54
2022/06/26 15:40:37;;;;;;;;;;;;;;;29.21;47.90;100728.19;1753260;82;20283;-54
2022/06/26 15:43:41;;;;;;;;;;;;;;;28.97;48.04;100727.13;1753074;82;20303;-54
2022/06/26 15:46:48;;;;;;;;;;;;;;;28.84;48.12;100736.78;1754602;80;20201;-53
2022/06/26 15:49:54;;;;;;;;;;;;;;;28.71;48.18;100739.65;1753221;82;20503;-54
2022/06/26 15:53:01;;;;;;;;;;;;;;;28.59;48.21;100731.23;1747682;82;20220;-55
2022/06/26 15:56:05;;;;;;;;;;;;;;;28.44;48.26;100741.94;1765847;80;20214;-55
2022/06/26 15:59:10;;;;;;;;;;;;;;;28.34;48.37;100739.67;1782449;80;20205;-54
2022/06/26 16:02:14;;;;;;;;;;;;;;;28.32;48.48;100734.33;1786671;79;20206;-55
2022/06/26 16:05:22;;;;;;;;;;;;;;;28.33;48.53;100734.63;1774478;79;20210;-54
2022/06/26 16:08:26;;;;;;;;;;;;;;;28.29;48.58;100734.08;1770458;81;20623;-55
2022/06/26 16:11:33;;;;;;;;;;;;;;;28.24;48.69;100734.08;1772323;80;20198;-54